sensor_id;sensor_type;location;lat;lon;timestamp;P1;durP1;ratioP1;P2;durP2;ratioP2
12956;SDS011;6543;48.836;10.092;2022-09-09T00:01:36;4.33;;;1.40;;
12956;SDS011;6543;48.836;10.092;2022-09-09T00:04:09;4.73;;;1.70;;
12956;SDS011;6543;48.836;10.092;2022-09-09T00:06:43;3.63;;;1.47;;
12956;SDS011;6543;48.836;10.092;2022-09-09T00:09:12;5.57;;;1.03;;
12956;SDS011;6543;48.836;10.092;2022-09-09T00:11:43;3.63;;;1.17;;
12956;SDS011;6543;48.836;10.092;2022-09-09T00:14:20;3.67;;;1.23;;
12956;SDS011;6543;48.836;10.092;2022-09-09T00:16:54;3.80;;;1.20;;
12956;SDS011;6543;48.836;10.092;2022-09-09T00:19:27;3.50;;;1.27;;
12956;SDS011;6543;48.836;10.092;2022-09-09T00:22:08;4.30;;;1.17;;
12956;SDS011;6543;48.836;10.092;2022-09-09T00:24:42;2.37;;;0.90;;
12956;SDS011;6543;48.836;10.092;2022-09-09T00:27:13;3.30;;;1.20;;
12956;SDS011;6543;48.836;10.092;2022-09-09T00:29:51;5.73;;;1.30;;
12956;SDS011;6543;48.836;10.092;2022-09-09T00:32:21;3.57;;;1.07;;
12956;SDS011;6543;48.836;10.092;2022-09-09T00:34:49;4.30;;;1.10;;
12956;SDS011;6543;48.836;10.092;2022-09-09T00:37:19;5.23;;;1.53;;
12956;SDS011;6543;48.836;10.092;2022-09-09T00:39:47;2.07;;;1.23;;
12956;SDS011;6543;48.836;10.092;2022-09-09T00:42:17;7.00;;;1.33;;
12956;SDS011;6543;48.836;10.092;2022-09-09T00:44:52;10.63;;;1.93;;
12956;SDS011;6543;48.836;10.092;2022-09-09T00:47:32;5.97;;;1.00;;
12956;SDS011;6543;48.836;10.092;2022-09-09T00:50:11;2.87;;;1.10;;
12956;SDS011;6543;48.836;10.092;2022-09-09T00:52:57;3.27;;;1.10;;
12956;SDS011;6543;48.836;10.092;2022-09-09T00:55:33;3.03;;;1.07;;
12956;SDS011;6543;48.836;10.092;2022-09-09T00:58:06;2.27;;;0.90;;
12956;SDS011;6543;48.836;10.092;2022-09-09T01:00:37;3.87;;;1.33;;
12956;SDS011;6543;48.836;10.092;2022-09-09T01:03:17;12.93;;;2.00;;
12956;SDS011;6543;48.836;10.092;2022-09-09T01:05:50;2.77;;;1.00;;
12956;SDS011;6543;48.836;10.092;2022-09-09T01:08:28;4.70;;;1.10;;
12956;SDS011;6543;48.836;10.092;2022-09-09T01:11:25;3.70;;;1.40;;
12956;SDS011;6543;48.836;10.092;2022-09-09T01:14:01;4.97;;;1.33;;
12956;SDS011;6543;48.836;10.092;2022-09-09T01:16:48;2.03;;;1.23;;
12956;SDS011;6543;48.836;10.092;2022-09-09T01:19:18;3.57;;;0.93;;
12956;SDS011;6543;48.836;10.092;2022-09-09T01:21:53;3.17;;;1.20;;
12956;SDS011;6543;48.836;10.092;2022-09-09T01:24:25;3.50;;;1.17;;
12956;SDS011;6543;48.836;10.092;2022-09-09T01:26:57;5.20;;;1.00;;
12956;SDS011;6543;48.836;10.092;2022-09-09T01:29:26;1.83;;;1.10;;
12956;SDS011;6543;48.836;10.092;2022-09-09T01:31:54;4.23;;;1.20;;
12956;SDS011;6543;48.836;10.092;2022-09-09T01:34:22;5.43;;;0.93;;
12956;SDS011;6543;48.836;10.092;2022-09-09T01:36:52;7.30;;;1.20;;
12956;SDS011;6543;48.836;10.092;2022-09-09T01:39:24;3.13;;;1.20;;
12956;SDS011;6543;48.836;10.092;2022-09-09T01:41:52;4.43;;;1.10;;
12956;SDS011;6543;48.836;10.092;2022-09-09T01:44:22;5.83;;;0.97;;
12956;SDS011;6543;48.836;10.092;2022-09-09T01:46:50;2.63;;;0.87;;
12956;SDS011;6543;48.836;10.092;2022-09-09T01:49:17;3.50;;;0.80;;
12956;SDS011;6543;48.836;10.092;2022-09-09T01:51:44;1.90;;;0.83;;
12956;SDS011;6543;48.836;10.092;2022-09-09T01:54:14;2.53;;;0.97;;
12956;SDS011;6543;48.836;10.092;2022-09-09T01:56:43;3.50;;;1.10;;
12956;SDS011;6543;48.836;10.092;2022-09-09T01:59:26;2.87;;;0.90;;
12956;SDS011;6543;48.836;10.092;2022-09-09T02:02:09;6.27;;;1.00;;
12956;SDS011;6543;48.836;10.092;2022-09-09T02:04:38;2.80;;;1.30;;
12956;SDS011;6543;48.836;10.092;2022-09-09T02:07:10;5.97;;;1.20;;
12956;SDS011;6543;48.836;10.092;2022-09-09T02:09:55;3.23;;;0.80;;
12956;SDS011;6543;48.836;10.092;2022-09-09T02:12:28;5.70;;;1.40;;
12956;SDS011;6543;48.836;10.092;2022-09-09T02:15:01;6.17;;;1.10;;
12956;SDS011;6543;48.836;10.092;2022-09-09T02:17:31;5.87;;;1.43;;
12956;SDS011;6543;48.836;10.092;2022-09-09T02:20:04;7.93;;;1.40;;
12956;SDS011;6543;48.836;10.092;2022-09-09T02:22:33;6.17;;;2.00;;
12956;SDS011;6543;48.836;10.092;2022-09-09T02:25:05;2.70;;;0.90;;
12956;SDS011;6543;48.836;10.092;2022-09-09T02:27:34;3.00;;;1.40;;
12956;SDS011;6543;48.836;10.092;2022-09-09T02:30:03;3.63;;;1.40;;
12956;SDS011;6543;48.836;10.092;2022-09-09T02:32:32;3.23;;;1.30;;
12956;SDS011;6543;48.836;10.092;2022-09-09T02:35:02;2.93;;;1.20;;
12956;SDS011;6543;48.836;10.092;2022-09-09T02:37:34;2.77;;;1.00;;
12956;SDS011;6543;48.836;10.092;2022-09-09T02:40:03;4.83;;;1.37;;
12956;SDS011;6543;48.836;10.092;2022-09-09T02:42:31;3.90;;;0.90;;
12956;SDS011;6543;48.836;10.092;2022-09-09T02:44:58;7.10;;;1.27;;
12956;SDS011;6543;48.836;10.092;2022-09-09T02:47:28;4.63;;;1.27;;
12956;SDS011;6543;48.836;10.092;2022-09-09T02:50:00;4.93;;;1.17;;
12956;SDS011;6543;48.836;10.092;2022-09-09T02:52:36;4.80;;;1.30;;
12956;SDS011;6543;48.836;10.092;2022-09-09T02:55:12;6.27;;;1.40;;
12956;SDS011;6543;48.836;10.092;2022-09-09T02:57:46;7.00;;;1.40;;
12956;SDS011;6543;48.836;10.092;2022-09-09T03:00:14;4.43;;;1.30;;
12956;SDS011;6543;48.836;10.092;2022-09-09T03:02:43;3.43;;;1.07;;
12956;SDS011;6543;48.836;10.092;2022-09-09T03:05:10;9.33;;;1.17;;
12956;SDS011;6543;48.836;10.092;2022-09-09T03:07:38;5.17;;;1.40;;
12956;SDS011;6543;48.836;10.092;2022-09-09T03:10:05;5.10;;;1.40;;
12956;SDS011;6543;48.836;10.092;2022-09-09T03:12:35;3.27;;;1.33;;
12956;SDS011;6543;48.836;10.092;2022-09-09T03:15:02;3.67;;;1.20;;
12956;SDS011;6543;48.836;10.092;2022-09-09T03:17:29;7.03;;;1.47;;
12956;SDS011;6543;48.836;10.092;2022-09-09T03:19:57;3.27;;;1.20;;
12956;SDS011;6543;48.836;10.092;2022-09-09T03:22:24;2.30;;;1.03;;
12956;SDS011;6543;48.836;10.092;2022-09-09T03:24:51;2.10;;;1.17;;
12956;SDS011;6543;48.836;10.092;2022-09-09T03:27:18;4.83;;;1.73;;
12956;SDS011;6543;48.836;10.092;2022-09-09T03:29:45;6.47;;;1.30;;
12956;SDS011;6543;48.836;10.092;2022-09-09T03:32:15;2.30;;;1.30;;
12956;SDS011;6543;48.836;10.092;2022-09-09T03:34:42;6.20;;;1.23;;
12956;SDS011;6543;48.836;10.092;2022-09-09T03:37:10;5.03;;;1.33;;
12956;SDS011;6543;48.836;10.092;2022-09-09T03:39:37;5.37;;;1.40;;
12956;SDS011;6543;48.836;10.092;2022-09-09T03:42:04;2.93;;;1.30;;
12956;SDS011;6543;48.836;10.092;2022-09-09T03:44:31;3.67;;;1.90;;
12956;SDS011;6543;48.836;10.092;2022-09-09T03:46:58;5.97;;;1.60;;
12956;SDS011;6543;48.836;10.092;2022-09-09T03:49:25;6.03;;;1.40;;
12956;SDS011;6543;48.836;10.092;2022-09-09T03:51:53;6.17;;;1.10;;
12956;SDS011;6543;48.836;10.092;2022-09-09T03:54:22;6.13;;;2.63;;
12956;SDS011;6543;48.836;10.092;2022-09-09T03:56:49;6.03;;;1.93;;
12956;SDS011;6543;48.836;10.092;2022-09-09T03:59:16;5.20;;;1.47;;
12956;SDS011;6543;48.836;10.092;2022-09-09T04:01:43;6.00;;;2.30;;
12956;SDS011;6543;48.836;10.092;2022-09-09T04:04:12;6.03;;;2.30;;
12956;SDS011;6543;48.836;10.092;2022-09-09T04:06:39;7.87;;;2.00;;
12956;SDS011;6543;48.836;10.092;2022-09-09T04:09:05;6.43;;;1.97;;
12956;SDS011;6543;48.836;10.092;2022-09-09T04:11:34;7.13;;;1.90;;
12956;SDS011;6543;48.836;10.092;2022-09-09T04:14:02;6.17;;;1.80;;
12956;SDS011;6543;48.836;10.092;2022-09-09T04:16:31;5.83;;;2.20;;
12956;SDS011;6543;48.836;10.092;2022-09-09T04:18:58;6.03;;;1.87;;
12956;SDS011;6543;48.836;10.092;2022-09-09T04:21:26;6.13;;;1.60;;
12956;SDS011;6543;48.836;10.092;2022-09-09T04:23:53;4.23;;;1.60;;
12956;SDS011;6543;48.836;10.092;2022-09-09T04:26:20;3.43;;;1.87;;
12956;SDS011;6543;48.836;10.092;2022-09-09T04:28:48;5.57;;;2.00;;
12956;SDS011;6543;48.836;10.092;2022-09-09T04:31:16;6.20;;;2.17;;
12956;SDS011;6543;48.836;10.092;2022-09-09T04:33:45;6.30;;;2.90;;
12956;SDS011;6543;48.836;10.092;2022-09-09T04:36:11;6.53;;;2.77;;
12956;SDS011;6543;48.836;10.092;2022-09-09T04:38:39;6.50;;;2.93;;
12956;SDS011;6543;48.836;10.092;2022-09-09T04:41:06;8.90;;;3.03;;
12956;SDS011;6543;48.836;10.092;2022-09-09T04:43:36;6.00;;;1.93;;
12956;SDS011;6543;48.836;10.092;2022-09-09T04:46:04;6.47;;;1.87;;
12956;SDS011;6543;48.836;10.092;2022-09-09T04:48:31;3.70;;;1.60;;
12956;SDS011;6543;48.836;10.092;2022-09-09T04:50:59;9.00;;;1.77;;
12956;SDS011;6543;48.836;10.092;2022-09-09T04:53:27;9.77;;;2.90;;
12956;SDS011;6543;48.836;10.092;2022-09-09T04:56:00;10.80;;;3.30;;
12956;SDS011;6543;48.836;10.092;2022-09-09T04:58:29;11.10;;;3.67;;
12956;SDS011;6543;48.836;10.092;2022-09-09T05:01:03;7.73;;;3.23;;
12956;SDS011;6543;48.836;10.092;2022-09-09T05:03:31;5.50;;;2.97;;
12956;SDS011;6543;48.836;10.092;2022-09-09T05:06:02;4.80;;;2.23;;
12956;SDS011;6543;48.836;10.092;2022-09-09T05:08:30;5.07;;;2.00;;
12956;SDS011;6543;48.836;10.092;2022-09-09T05:10:57;8.33;;;2.47;;
12956;SDS011;6543;48.836;10.092;2022-09-09T05:13:24;9.07;;;3.40;;
12956;SDS011;6543;48.836;10.092;2022-09-09T05:15:52;8.57;;;3.83;;
12956;SDS011;6543;48.836;10.092;2022-09-09T05:18:21;7.40;;;3.37;;
12956;SDS011;6543;48.836;10.092;2022-09-09T05:20:48;2.97;;;1.83;;
12956;SDS011;6543;48.836;10.092;2022-09-09T05:23:16;3.00;;;1.63;;
12956;SDS011;6543;48.836;10.092;2022-09-09T05:25:42;5.63;;;2.00;;
12956;SDS011;6543;48.836;10.092;2022-09-09T05:28:11;8.63;;;2.20;;
12956;SDS011;6543;48.836;10.092;2022-09-09T05:30:38;8.10;;;2.63;;
12956;SDS011;6543;48.836;10.092;2022-09-09T05:33:05;5.63;;;3.10;;
12956;SDS011;6543;48.836;10.092;2022-09-09T05:35:35;5.43;;;2.60;;
12956;SDS011;6543;48.836;10.092;2022-09-09T05:38:03;4.87;;;2.73;;
12956;SDS011;6543;48.836;10.092;2022-09-09T05:40:29;6.40;;;3.47;;
12956;SDS011;6543;48.836;10.092;2022-09-09T05:42:59;8.23;;;2.93;;
12956;SDS011;6543;48.836;10.092;2022-09-09T05:45:26;7.27;;;4.40;;
12956;SDS011;6543;48.836;10.092;2022-09-09T05:47:53;9.00;;;3.80;;
12956;SDS011;6543;48.836;10.092;2022-09-09T05:50:20;7.27;;;3.33;;
12956;SDS011;6543;48.836;10.092;2022-09-09T05:52:48;7.87;;;3.33;;
12956;SDS011;6543;48.836;10.092;2022-09-09T05:55:15;7.43;;;3.53;;
12956;SDS011;6543;48.836;10.092;2022-09-09T05:57:42;9.33;;;3.27;;
12956;SDS011;6543;48.836;10.092;2022-09-09T06:00:14;8.77;;;3.73;;
12956;SDS011;6543;48.836;10.092;2022-09-09T06:02:41;8.73;;;3.87;;
12956;SDS011;6543;48.836;10.092;2022-09-09T06:05:08;8.80;;;4.93;;
12956;SDS011;6543;48.836;10.092;2022-09-09T06:07:36;12.27;;;5.47;;
12956;SDS011;6543;48.836;10.092;2022-09-09T06:10:08;10.83;;;6.33;;
12956;SDS011;6543;48.836;10.092;2022-09-09T06:12:35;12.20;;;6.33;;
12956;SDS011;6543;48.836;10.092;2022-09-09T06:15:02;14.53;;;5.73;;
12956;SDS011;6543;48.836;10.092;2022-09-09T06:17:30;11.10;;;4.90;;
12956;SDS011;6543;48.836;10.092;2022-09-09T06:19:57;7.00;;;3.63;;
12956;SDS011;6543;48.836;10.092;2022-09-09T06:22:24;8.43;;;4.13;;
12956;SDS011;6543;48.836;10.092;2022-09-09T06:24:51;5.67;;;2.80;;
12956;SDS011;6543;48.836;10.092;2022-09-09T06:27:19;7.53;;;2.20;;
12956;SDS011;6543;48.836;10.092;2022-09-09T06:29:46;3.37;;;1.70;;
12956;SDS011;6543;48.836;10.092;2022-09-09T06:32:13;9.07;;;1.90;;
12956;SDS011;6543;48.836;10.092;2022-09-09T06:34:40;6.87;;;1.60;;
12956;SDS011;6543;48.836;10.092;2022-09-09T06:37:07;4.70;;;1.70;;
12956;SDS011;6543;48.836;10.092;2022-09-09T06:39:34;6.57;;;1.93;;
12956;SDS011;6543;48.836;10.092;2022-09-09T06:42:01;6.20;;;2.40;;
12956;SDS011;6543;48.836;10.092;2022-09-09T06:44:30;15.23;;;2.90;;
12956;SDS011;6543;48.836;10.092;2022-09-09T06:46:58;5.00;;;2.60;;
12956;SDS011;6543;48.836;10.092;2022-09-09T06:49:25;3.87;;;2.10;;
12956;SDS011;6543;48.836;10.092;2022-09-09T06:51:52;5.50;;;2.30;;
12956;SDS011;6543;48.836;10.092;2022-09-09T06:54:19;6.73;;;2.00;;
12956;SDS011;6543;48.836;10.092;2022-09-09T06:56:47;3.97;;;2.43;;
12956;SDS011;6543;48.836;10.092;2022-09-09T06:59:15;4.77;;;1.83;;
12956;SDS011;6543;48.836;10.092;2022-09-09T07:01:43;7.07;;;2.30;;
12956;SDS011;6543;48.836;10.092;2022-09-09T07:04:10;6.83;;;1.93;;
12956;SDS011;6543;48.836;10.092;2022-09-09T07:06:39;4.87;;;1.83;;
12956;SDS011;6543;48.836;10.092;2022-09-09T07:09:09;7.47;;;1.37;;
12956;SDS011;6543;48.836;10.092;2022-09-09T07:11:38;5.57;;;1.40;;
12956;SDS011;6543;48.836;10.092;2022-09-09T07:14:07;4.03;;;1.10;;
12956;SDS011;6543;48.836;10.092;2022-09-09T07:16:34;2.92;;;0.93;;
12956;SDS011;6543;48.836;10.092;2022-09-09T07:19:03;3.00;;;0.75;;
12956;SDS011;6543;48.836;10.092;2022-09-09T07:21:31;2.47;;;1.00;;
12956;SDS011;6543;48.836;10.092;2022-09-09T07:23:59;3.47;;;0.87;;
12956;SDS011;6543;48.836;10.092;2022-09-09T07:26:27;8.27;;;1.40;;
12956;SDS011;6543;48.836;10.092;2022-09-09T07:28:55;4.07;;;0.90;;
12956;SDS011;6543;48.836;10.092;2022-09-09T07:31:23;3.10;;;0.73;;
12956;SDS011;6543;48.836;10.092;2022-09-09T07:33:51;3.57;;;0.77;;
12956;SDS011;6543;48.836;10.092;2022-09-09T07:36:21;2.03;;;0.70;;
12956;SDS011;6543;48.836;10.092;2022-09-09T07:38:50;3.43;;;1.10;;
12956;SDS011;6543;48.836;10.092;2022-09-09T07:41:19;1.63;;;0.83;;
12956;SDS011;6543;48.836;10.092;2022-09-09T07:43:48;3.27;;;0.80;;
12956;SDS011;6543;48.836;10.092;2022-09-09T07:46:16;4.00;;;0.90;;
12956;SDS011;6543;48.836;10.092;2022-09-09T07:48:45;5.80;;;0.95;;
12956;SDS011;6543;48.836;10.092;2022-09-09T07:51:13;2.70;;;1.02;;
12956;SDS011;6543;48.836;10.092;2022-09-09T07:53:45;3.75;;;0.88;;
12956;SDS011;6543;48.836;10.092;2022-09-09T07:56:14;2.27;;;1.10;;
12956;SDS011;6543;48.836;10.092;2022-09-09T07:58:42;3.85;;;0.82;;
12956;SDS011;6543;48.836;10.092;2022-09-09T08:01:12;2.03;;;0.80;;
12956;SDS011;6543;48.836;10.092;2022-09-09T08:03:41;3.50;;;0.90;;
12956;SDS011;6543;48.836;10.092;2022-09-09T08:06:09;2.92;;;1.02;;
12956;SDS011;6543;48.836;10.092;2022-09-09T08:08:38;3.20;;;0.77;;
12956;SDS011;6543;48.836;10.092;2022-09-09T08:11:10;2.17;;;1.00;;
12956;SDS011;6543;48.836;10.092;2022-09-09T08:13:39;2.05;;;0.68;;
12956;SDS011;6543;48.836;10.092;2022-09-09T08:16:08;2.08;;;0.63;;
12956;SDS011;6543;48.836;10.092;2022-09-09T08:18:37;2.30;;;0.90;;
12956;SDS011;6543;48.836;10.092;2022-09-09T08:21:05;4.07;;;0.88;;
12956;SDS011;6543;48.836;10.092;2022-09-09T08:23:34;2.55;;;0.77;;
12956;SDS011;6543;48.836;10.092;2022-09-09T08:26:05;2.22;;;0.82;;
12956;SDS011;6543;48.836;10.092;2022-09-09T08:28:35;4.13;;;0.68;;
12956;SDS011;6543;48.836;10.092;2022-09-09T08:31:06;4.10;;;1.00;;
12956;SDS011;6543;48.836;10.092;2022-09-09T08:33:34;3.83;;;1.05;;
12956;SDS011;6543;48.836;10.092;2022-09-09T08:36:03;0.70;;;0.57;;
12956;SDS011;6543;48.836;10.092;2022-09-09T08:38:30;2.83;;;1.00;;
12956;SDS011;6543;48.836;10.092;2022-09-09T08:41:00;4.63;;;0.95;;
12956;SDS011;6543;48.836;10.092;2022-09-09T08:43:37;3.03;;;0.80;;
12956;SDS011;6543;48.836;10.092;2022-09-09T08:46:07;2.22;;;0.85;;
12956;SDS011;6543;48.836;10.092;2022-09-09T08:48:42;4.28;;;1.00;;
12956;SDS011;6543;48.836;10.092;2022-09-09T08:51:19;2.00;;;1.00;;
12956;SDS011;6543;48.836;10.092;2022-09-09T08:53:47;2.88;;;0.70;;
12956;SDS011;6543;48.836;10.092;2022-09-09T08:56:18;4.88;;;0.75;;
12956;SDS011;6543;48.836;10.092;2022-09-09T08:58:51;7.55;;;1.48;;
12956;SDS011;6543;48.836;10.092;2022-09-09T09:01:32;4.32;;;1.67;;
12956;SDS011;6543;48.836;10.092;2022-09-09T09:04:07;2.03;;;0.98;;
12956;SDS011;6543;48.836;10.092;2022-09-09T09:06:48;2.85;;;1.10;;
12956;SDS011;6543;48.836;10.092;2022-09-09T09:09:21;3.00;;;0.90;;
12956;SDS011;6543;48.836;10.092;2022-09-09T09:11:53;2.55;;;1.00;;
12956;SDS011;6543;48.836;10.092;2022-09-09T09:14:27;4.10;;;0.90;;
12956;SDS011;6543;48.836;10.092;2022-09-09T09:16:56;2.50;;;0.80;;
12956;SDS011;6543;48.836;10.092;2022-09-09T09:19:25;2.57;;;1.10;;
12956;SDS011;6543;48.836;10.092;2022-09-09T09:21:57;3.15;;;0.90;;
12956;SDS011;6543;48.836;10.092;2022-09-09T09:24:31;3.95;;;0.70;;
12956;SDS011;6543;48.836;10.092;2022-09-09T09:27:14;2.33;;;0.83;;
12956;SDS011;6543;48.836;10.092;2022-09-09T09:29:46;1.98;;;0.77;;
12956;SDS011;6543;48.836;10.092;2022-09-09T09:32:17;4.13;;;0.68;;
12956;SDS011;6543;48.836;10.092;2022-09-09T09:34:48;3.53;;;0.80;;
12956;SDS011;6543;48.836;10.092;2022-09-09T09:37:16;4.40;;;0.75;;
12956;SDS011;6543;48.836;10.092;2022-09-09T09:39:46;4.10;;;0.70;;
12956;SDS011;6543;48.836;10.092;2022-09-09T09:42:15;1.83;;;0.70;;
12956;SDS011;6543;48.836;10.092;2022-09-09T09:44:43;4.32;;;0.90;;
12956;SDS011;6543;48.836;10.092;2022-09-09T09:47:12;8.93;;;2.75;;
12956;SDS011;6543;48.836;10.092;2022-09-09T09:49:50;9.52;;;6.25;;
12956;SDS011;6543;48.836;10.092;2022-09-09T09:52:20;6.00;;;2.08;;
12956;SDS011;6543;48.836;10.092;2022-09-09T09:54:49;3.13;;;1.10;;
12956;SDS011;6543;48.836;10.092;2022-09-09T09:57:17;4.30;;;0.80;;
12956;SDS011;6543;48.836;10.092;2022-09-09T09:59:59;2.42;;;1.02;;
12956;SDS011;6543;48.836;10.092;2022-09-09T10:02:31;1.73;;;0.82;;
12956;SDS011;6543;48.836;10.092;2022-09-09T10:05:08;3.58;;;1.30;;
12956;SDS011;6543;48.836;10.092;2022-09-09T10:07:40;3.78;;;1.00;;
12956;SDS011;6543;48.836;10.092;2022-09-09T10:10:09;4.30;;;0.95;;
12956;SDS011;6543;48.836;10.092;2022-09-09T10:12:41;5.28;;;1.02;;
12956;SDS011;6543;48.836;10.092;2022-09-09T10:15:26;3.90;;;0.90;;
12956;SDS011;6543;48.836;10.092;2022-09-09T10:18:03;3.67;;;1.20;;
12956;SDS011;6543;48.836;10.092;2022-09-09T10:20:41;3.65;;;1.00;;
12956;SDS011;6543;48.836;10.092;2022-09-09T10:23:16;3.70;;;0.75;;
12956;SDS011;6543;48.836;10.092;2022-09-09T10:25:57;2.55;;;0.80;;
12956;SDS011;6543;48.836;10.092;2022-09-09T10:31:27;3.25;;;1.20;;
12956;SDS011;6543;48.836;10.092;2022-09-09T10:34:06;3.42;;;1.00;;
12956;SDS011;6543;48.836;10.092;2022-09-09T10:36:46;2.42;;;1.10;;
12956;SDS011;6543;48.836;10.092;2022-09-09T10:39:18;2.53;;;0.85;;
12956;SDS011;6543;48.836;10.092;2022-09-09T10:41:59;3.72;;;1.67;;
12956;SDS011;6543;48.836;10.092;2022-09-09T10:44:34;4.25;;;1.10;;
12956;SDS011;6543;48.836;10.092;2022-09-09T10:53:00;2.40;;;0.95;;
12956;SDS011;6543;48.836;10.092;2022-09-09T10:55:35;3.25;;;1.00;;
12956;SDS011;6543;48.836;10.092;2022-09-09T10:58:05;3.17;;;1.00;;
12956;SDS011;6543;48.836;10.092;2022-09-09T11:00:37;4.38;;;1.23;;
12956;SDS011;6543;48.836;10.092;2022-09-09T11:03:11;4.10;;;0.90;;
12956;SDS011;6543;48.836;10.092;2022-09-09T11:05:45;5.18;;;1.25;;
12956;SDS011;6543;48.836;10.092;2022-09-09T11:08:17;3.00;;;1.20;;
12956;SDS011;6543;48.836;10.092;2022-09-09T11:10:48;3.45;;;1.00;;
12956;SDS011;6543;48.836;10.092;2022-09-09T11:13:24;3.72;;;0.85;;
12956;SDS011;6543;48.836;10.092;2022-09-09T11:15:58;2.95;;;1.10;;
12956;SDS011;6543;48.836;10.092;2022-09-09T11:18:32;3.42;;;0.98;;
12956;SDS011;6543;48.836;10.092;2022-09-09T11:21:06;2.80;;;1.02;;
12956;SDS011;6543;48.836;10.092;2022-09-09T11:23:43;2.40;;;0.90;;
12956;SDS011;6543;48.836;10.092;2022-09-09T11:26:16;4.53;;;1.20;;
12956;SDS011;6543;48.836;10.092;2022-09-09T11:28:52;6.00;;;1.00;;
12956;SDS011;6543;48.836;10.092;2022-09-09T11:31:32;2.13;;;0.82;;
12956;SDS011;6543;48.836;10.092;2022-09-09T11:34:15;3.55;;;0.95;;
12956;SDS011;6543;48.836;10.092;2022-09-09T11:36:56;3.92;;;1.17;;
12956;SDS011;6543;48.836;10.092;2022-09-09T11:39:42;4.15;;;0.80;;
12956;SDS011;6543;48.836;10.092;2022-09-09T11:42:22;1.65;;;0.70;;
12956;SDS011;6543;48.836;10.092;2022-09-09T11:44:50;2.97;;;1.00;;
12956;SDS011;6543;48.836;10.092;2022-09-09T11:47:21;4.68;;;2.08;;
12956;SDS011;6543;48.836;10.092;2022-09-09T11:50:06;2.22;;;0.80;;
12956;SDS011;6543;48.836;10.092;2022-09-09T11:52:38;2.60;;;0.90;;
12956;SDS011;6543;48.836;10.092;2022-09-09T11:55:10;2.67;;;0.95;;
12956;SDS011;6543;48.836;10.092;2022-09-09T11:57:56;2.00;;;0.75;;
12956;SDS011;6543;48.836;10.092;2022-09-09T12:00:30;4.18;;;0.80;;
12956;SDS011;6543;48.836;10.092;2022-09-09T12:03:02;2.80;;;0.80;;
12956;SDS011;6543;48.836;10.092;2022-09-09T12:05:37;6.00;;;0.80;;
12956;SDS011;6543;48.836;10.092;2022-09-09T12:08:07;1.45;;;0.60;;
12956;SDS011;6543;48.836;10.092;2022-09-09T12:10:38;3.45;;;1.08;;
12956;SDS011;6543;48.836;10.092;2022-09-09T12:13:15;3.35;;;1.35;;
12956;SDS011;6543;48.836;10.092;2022-09-09T12:15:47;3.10;;;0.90;;
12956;SDS011;6543;48.836;10.092;2022-09-09T12:18:16;2.00;;;1.35;;
12956;SDS011;6543;48.836;10.092;2022-09-09T12:20:52;3.55;;;0.80;;
12956;SDS011;6543;48.836;10.092;2022-09-09T12:23:28;3.08;;;0.60;;
12956;SDS011;6543;48.836;10.092;2022-09-09T12:26:03;2.60;;;1.17;;
12956;SDS011;6543;48.836;10.092;2022-09-09T12:28:41;4.90;;;1.13;;
12956;SDS011;6543;48.836;10.092;2022-09-09T12:31:17;3.63;;;0.80;;
12956;SDS011;6543;48.836;10.092;2022-09-09T12:33:51;3.58;;;1.20;;
12956;SDS011;6543;48.836;10.092;2022-09-09T12:36:20;1.10;;;0.57;;
12956;SDS011;6543;48.836;10.092;2022-09-09T12:38:50;4.55;;;1.00;;
12956;SDS011;6543;48.836;10.092;2022-09-09T12:41:18;1.75;;;0.70;;
12956;SDS011;6543;48.836;10.092;2022-09-09T12:43:47;3.53;;;0.65;;
12956;SDS011;6543;48.836;10.092;2022-09-09T12:46:18;4.32;;;0.90;;
12956;SDS011;6543;48.836;10.092;2022-09-09T12:48:51;1.70;;;0.60;;
12956;SDS011;6543;48.836;10.092;2022-09-09T12:51:23;4.95;;;1.33;;
12956;SDS011;6543;48.836;10.092;2022-09-09T12:53:53;2.88;;;1.00;;
12956;SDS011;6543;48.836;10.092;2022-09-09T12:56:21;7.25;;;0.98;;
12956;SDS011;6543;48.836;10.092;2022-09-09T12:58:51;2.10;;;0.60;;
12956;SDS011;6543;48.836;10.092;2022-09-09T13:01:21;1.80;;;0.68;;
12956;SDS011;6543;48.836;10.092;2022-09-09T13:03:49;0.70;;;0.40;;
12956;SDS011;6543;48.836;10.092;2022-09-09T13:06:20;2.85;;;0.50;;
12956;SDS011;6543;48.836;10.092;2022-09-09T13:08:49;3.70;;;0.60;;
12956;SDS011;6543;48.836;10.092;2022-09-09T13:11:17;2.63;;;0.40;;
12956;SDS011;6543;48.836;10.092;2022-09-09T13:13:50;1.25;;;0.70;;
12956;SDS011;6543;48.836;10.092;2022-09-09T13:16:20;1.48;;;0.85;;
12956;SDS011;6543;48.836;10.092;2022-09-09T13:18:49;2.80;;;0.63;;
12956;SDS011;6543;48.836;10.092;2022-09-09T13:21:17;4.47;;;0.82;;
12956;SDS011;6543;48.836;10.092;2022-09-09T13:23:49;3.58;;;1.52;;
12956;SDS011;6543;48.836;10.092;2022-09-09T13:26:21;3.00;;;0.98;;
12956;SDS011;6543;48.836;10.092;2022-09-09T13:28:49;1.92;;;0.70;;
12956;SDS011;6543;48.836;10.092;2022-09-09T13:31:21;2.38;;;0.50;;
12956;SDS011;6543;48.836;10.092;2022-09-09T13:33:52;3.05;;;0.50;;
12956;SDS011;6543;48.836;10.092;2022-09-09T13:36:27;1.83;;;0.73;;
12956;SDS011;6543;48.836;10.092;2022-09-09T13:38:57;1.20;;;0.70;;
12956;SDS011;6543;48.836;10.092;2022-09-09T13:41:27;3.63;;;0.63;;
12956;SDS011;6543;48.836;10.092;2022-09-09T13:43:56;1.07;;;0.53;;
12956;SDS011;6543;48.836;10.092;2022-09-09T13:46:28;3.60;;;1.15;;
12956;SDS011;6543;48.836;10.092;2022-09-09T13:48:59;1.88;;;0.60;;
12956;SDS011;6543;48.836;10.092;2022-09-09T13:51:33;4.35;;;0.50;;
12956;SDS011;6543;48.836;10.092;2022-09-09T13:54:03;1.37;;;0.97;;
12956;SDS011;6543;48.836;10.092;2022-09-09T13:56:31;3.33;;;1.07;;
12956;SDS011;6543;48.836;10.092;2022-09-09T13:58:58;1.17;;;0.45;;
12956;SDS011;6543;48.836;10.092;2022-09-09T14:01:25;2.45;;;0.80;;
12956;SDS011;6543;48.836;10.092;2022-09-09T14:03:53;3.03;;;0.60;;
12956;SDS011;6543;48.836;10.092;2022-09-09T14:06:20;3.70;;;0.80;;
12956;SDS011;6543;48.836;10.092;2022-09-09T14:08:48;5.32;;;0.77;;
12956;SDS011;6543;48.836;10.092;2022-09-09T14:11:18;2.22;;;0.80;;
12956;SDS011;6543;48.836;10.092;2022-09-09T14:13:46;3.15;;;0.82;;
12956;SDS011;6543;48.836;10.092;2022-09-09T14:16:14;2.38;;;0.60;;
12956;SDS011;6543;48.836;10.092;2022-09-09T14:18:42;2.00;;;0.50;;
12956;SDS011;6543;48.836;10.092;2022-09-09T14:21:09;1.55;;;0.80;;
12956;SDS011;6543;48.836;10.092;2022-09-09T14:23:36;1.10;;;0.70;;
12956;SDS011;6543;48.836;10.092;2022-09-09T14:26:04;3.13;;;0.88;;
12956;SDS011;6543;48.836;10.092;2022-09-09T14:28:32;2.42;;;0.63;;
12956;SDS011;6543;48.836;10.092;2022-09-09T14:31:00;4.18;;;0.90;;
12956;SDS011;6543;48.836;10.092;2022-09-09T14:33:27;3.53;;;0.57;;
12956;SDS011;6543;48.836;10.092;2022-09-09T14:35:55;6.78;;;0.95;;
12956;SDS011;6543;48.836;10.092;2022-09-09T14:38:23;2.83;;;0.70;;
12956;SDS011;6543;48.836;10.092;2022-09-09T14:40:50;5.78;;;1.02;;
12956;SDS011;6543;48.836;10.092;2022-09-09T14:43:17;4.80;;;0.90;;
12956;SDS011;6543;48.836;10.092;2022-09-09T14:45:45;5.10;;;0.80;;
12956;SDS011;6543;48.836;10.092;2022-09-09T14:48:13;3.30;;;0.88;;
12956;SDS011;6543;48.836;10.092;2022-09-09T14:50:40;3.78;;;0.80;;
12956;SDS011;6543;48.836;10.092;2022-09-09T14:53:08;3.00;;;1.15;;
12956;SDS011;6543;48.836;10.092;2022-09-09T14:55:35;5.10;;;1.52;;
12956;SDS011;6543;48.836;10.092;2022-09-09T14:58:02;0.70;;;0.60;;
12956;SDS011;6543;48.836;10.092;2022-09-09T15:00:30;2.53;;;0.75;;
12956;SDS011;6543;48.836;10.092;2022-09-09T15:02:58;1.05;;;0.40;;
12956;SDS011;6543;48.836;10.092;2022-09-09T15:05:25;2.95;;;0.73;;
12956;SDS011;6543;48.836;10.092;2022-09-09T15:07:53;1.20;;;0.57;;
12956;SDS011;6543;48.836;10.092;2022-09-09T15:10:19;2.83;;;0.68;;
12956;SDS011;6543;48.836;10.092;2022-09-09T15:12:46;5.32;;;1.08;;
12956;SDS011;6543;48.836;10.092;2022-09-09T15:15:13;1.90;;;0.60;;
12956;SDS011;6543;48.836;10.092;2022-09-09T15:17:40;3.70;;;0.80;;